Time;durP1;ratioP1;P1;durP2;ratioP2;P2;SDS_P1;SDS_P2;PMS_P1;PMS_P2;Temp;Humidity;BMP_temperature;BMP_pressure;BME280_temperature;BME280_humidity;BME280_pressure;Samples;Min_cycle;Max_cycle;Signal;HPM_P1;HPM_P2
2022/01/22 00:00:56;;;;;;;13.20;5.78;;;;;;;;;;5046218;28;20076;-59
2022/01/22 00:03:23;;;;;;;15.27;6.60;;;;;;;;;;5044273;28;20112;-58
2022/01/22 00:05:50;;;;;;;11.15;5.60;;;;;;;;;;5043695;28;20035;-58
2022/01/22 00:08:16;;;;;;;15.73;5.97;;;;;;;;;;5045208;28;20068;-58
2022/01/22 00:10:44;;;;;;;12.57;5.07;;;;;;;;;;5046229;28;20021;-58
2022/01/22 00:15:42;;;;;;;10.48;5.13;;;;;;;;;;5045652;28;20036;-58
2022/01/22 00:18:09;;;;;;;11.82;5.35;;;;;;;;;;5044295;28;20025;-58
2022/01/22 00:20:36;;;;;;;13.40;4.88;;;;;;;;;;5045110;28;20028;-58
2022/01/22 00:23:03;;;;;;;10.30;4.47;;;;;;;;;;5046266;28;20028;-58
2022/01/22 00:25:29;;;;;;;9.93;5.07;;;;;;;;;;5028254;28;20040;-58
2022/01/22 00:27:55;;;;;;;11.73;5.20;;;;;;;;;;5024218;28;20033;-59
2022/01/22 00:30:23;;;;;;;12.65;5.60;;;;;;;;;;5025917;28;20021;-58
2022/01/22 00:32:49;;;;;;;13.00;5.43;;;;;;;;;;5041158;28;20033;-58
2022/01/22 00:35:17;;;;;;;12.73;5.57;;;;;;;;;;5025950;28;20025;-59
2022/01/22 00:37:44;;;;;;;11.73;5.38;;;;;;;;;;5025550;28;20022;-59
2022/01/22 00:40:11;;;;;;;13.15;6.15;;;;;;;;;;5025358;28;20096;-59
2022/01/22 00:42:38;;;;;;;15.82;6.60;;;;;;;;;;5025552;28;20060;-59
2022/01/22 00:45:04;;;;;;;17.98;6.97;;;;;;;;;;5025024;28;20032;-59
2022/01/22 00:47:30;;;;;;;15.50;6.68;;;;;;;;;;5040903;28;20128;-59
2022/01/22 00:49:56;;;;;;;16.80;7.30;;;;;;;;;;5025053;28;20057;-58
2022/01/22 00:52:23;;;;;;;12.75;6.20;;;;;;;;;;5025546;28;20033;-59
2022/01/22 00:54:49;;;;;;;11.32;5.20;;;;;;;;;;5031525;28;20029;-59
2022/01/22 00:57:16;;;;;;;10.25;5.18;;;;;;;;;;5024978;28;20112;-59
2022/01/22 00:59:42;;;;;;;12.60;5.55;;;;;;;;;;5025273;28;20017;-58
2022/01/22 01:02:09;;;;;;;15.10;6.00;;;;;;;;;;5024801;28;20049;-59
2022/01/22 01:04:37;;;;;;;12.55;6.00;;;;;;;;;;5026926;28;20064;-59
2022/01/22 01:07:04;;;;;;;12.00;5.78;;;;;;;;;;5042949;28;20128;-59
2022/01/22 01:09:30;;;;;;;15.50;6.65;;;;;;;;;;5045388;28;20033;-59
2022/01/22 01:12:01;;;;;;;15.13;5.40;;;;;;;;;;5044624;28;20033;-59
2022/01/22 01:14:35;;;;;;;7.88;4.18;;;;;;;;;;5044836;28;20060;-58
2022/01/22 01:33:47;;;;;;;10.45;4.28;;;;;;;;;;5040800;28;20040;-58
2022/01/22 01:36:15;;;;;;;13.02;5.00;;;;;;;;;;5042803;28;20519;-58
2022/01/22 01:38:48;;;;;;;12.30;4.90;;;;;;;;;;5039187;28;20033;-58
2022/01/22 01:41:25;;;;;;;9.50;4.30;;;;;;;;;;5024476;28;20028;-58
2022/01/22 01:43:51;;;;;;;12.35;5.53;;;;;;;;;;5026450;28;20036;-58
2022/01/22 01:46:18;;;;;;;19.20;7.25;;;;;;;;;;5042597;28;20032;-59
2022/01/22 01:48:46;;;;;;;19.23;7.13;;;;;;;;;;5024318;28;20029;-58
2022/01/22 01:51:13;;;;;;;16.80;6.25;;;;;;;;;;5024150;28;20086;-59
2022/01/22 01:53:55;;;;;;;16.23;7.18;;;;;;;;;;5039355;28;20033;-59
2022/01/22 01:59:10;;;;;;;19.65;9.10;;;;;;;;;;5044103;28;20055;-58
2022/01/22 02:01:36;;;;;;;25.92;12.07;;;;;;;;;;5044045;28;20036;-59
2022/01/22 02:04:02;;;;;;;21.92;10.48;;;;;;;;;;5042450;28;20025;-58
2022/01/22 02:06:29;;;;;;;17.85;9.35;;;;;;;;;;5042586;28;20064;-59
2022/01/22 02:08:55;;;;;;;14.40;8.38;;;;;;;;;;5043882;28;20224;-59
2022/01/22 02:11:24;;;;;;;11.07;6.60;;;;;;;;;;5042647;28;20564;-59
2022/01/22 02:14:05;;;;;;;11.63;5.88;;;;;;;;;;5043840;28;20511;-58
2022/01/22 02:24:49;;;;;;;6.00;3.22;;;;;;;;;;5024771;28;20080;-57
2022/01/22 02:27:15;;;;;;;4.90;2.72;;;;;;;;;;5025145;28;20555;-57
2022/01/22 02:29:42;;;;;;;4.45;2.30;;;;;;;;;;5034183;28;20135;-57
2022/01/22 02:34:48;;;;;;;4.25;2.38;;;;;;;;;;5044213;28;20471;-57
2022/01/22 02:37:18;;;;;;;6.10;2.15;;;;;;;;;;5044174;28;20045;-57
2022/01/22 02:39:59;;;;;;;4.00;1.95;;;;;;;;;;5036201;28;20091;-57
2022/01/22 02:42:32;;;;;;;3.85;2.03;;;;;;;;;;5024553;28;20048;-58
2022/01/22 02:44:58;;;;;;;3.63;2.17;;;;;;;;;;5024441;28;20029;-57
2022/01/22 02:47:25;;;;;;;5.55;2.42;;;;;;;;;;5024024;28;20033;-56
2022/01/22 02:49:52;;;;;;;4.15;2.67;;;;;;;;;;5024310;28;20519;-57
2022/01/22 02:52:19;;;;;;;4.93;2.17;;;;;;;;;;5027790;28;20034;-57
2022/01/22 02:54:47;;;;;;;4.65;3.13;;;;;;;;;;5031536;28;20411;-58
2022/01/22 02:57:13;;;;;;;6.75;3.03;;;;;;;;;;5047427;28;20056;-56
2022/01/22 02:59:40;;;;;;;4.97;2.90;;;;;;;;;;5048025;28;20412;-56
2022/01/22 03:02:12;;;;;;;4.38;2.80;;;;;;;;;;5047416;28;20384;-58
2022/01/22 03:04:38;;;;;;;5.45;3.08;;;;;;;;;;5046117;28;20116;-57
2022/01/22 03:07:05;;;;;;;6.18;2.70;;;;;;;;;;5047157;28;20033;-57
2022/01/22 03:09:39;;;;;;;5.85;2.58;;;;;;;;;;5048330;28;20056;-57
2022/01/22 03:22:18;;;;;;;5.57;2.55;;;;;;;;;;5047421;28;20057;-57
2022/01/22 03:27:31;;;;;;;6.50;3.47;;;;;;;;;;5047340;28;19919;-57
2022/01/22 03:29:57;;;;;;;9.73;2.90;;;;;;;;;;5047230;28;20056;-57
2022/01/22 03:32:28;;;;;;;8.10;3.08;;;;;;;;;;5047225;28;20664;-58
2022/01/22 03:35:24;;;;;;;7.38;3.28;;;;;;;;;;5035125;28;20133;-57
2022/01/22 03:37:43;;;;;;;9.52;3.20;;;;;;;;;;5046769;28;20037;-57
2022/01/22 03:40:10;;;;;;;5.80;3.08;;;;;;;;;;5047121;28;20025;-57
2022/01/22 03:42:36;;;;;;;5.70;3.10;;;;;;;;;;5047031;28;20492;-57
2022/01/22 03:45:04;;;;;;;6.00;2.83;;;;;;;;;;5045918;28;20412;-56
2022/01/22 03:47:30;;;;;;;8.10;3.40;;;;;;;;;;5027802;28;20564;-57
2022/01/22 03:49:58;;;;;;;8.60;3.38;;;;;;;;;;5027207;28;20152;-57
2022/01/22 03:52:25;;;;;;;9.25;4.00;;;;;;;;;;5027115;28;20030;-57
2022/01/22 03:54:51;;;;;;;10.98;4.93;;;;;;;;;;5026773;28;20420;-56
2022/01/22 03:57:18;;;;;;;9.63;4.82;;;;;;;;;;5026751;28;20030;-57
2022/01/22 03:59:46;;;;;;;15.63;6.32;;;;;;;;;;5026770;28;20089;-56
2022/01/22 04:04:51;;;;;;;13.45;6.10;;;;;;;;;;5026693;28;20341;-56
2022/01/22 04:09:47;;;;;;;11.60;5.38;;;;;;;;;;5046581;28;20035;-57
2022/01/22 04:12:16;;;;;;;11.88;5.10;;;;;;;;;;5046598;28;20041;-56
2022/01/22 04:14:51;;;;;;;10.90;5.70;;;;;;;;;;5045062;28;20021;-56
2022/01/22 04:17:36;;;;;;;9.93;5.18;;;;;;;;;;5046965;28;20025;-57
2022/01/22 04:25:37;;;;;;;7.60;3.92;;;;;;;;;;5026199;28;20102;-57
2022/01/22 04:28:03;;;;;;;9.45;4.18;;;;;;;;;;5026554;28;20116;-56
2022/01/22 04:30:29;;;;;;;8.38;4.05;;;;;;;;;;5026903;28;20453;-56
2022/01/22 04:32:55;;;;;;;9.77;4.43;;;;;;;;;;5025916;28;20029;-56
2022/01/22 04:35:25;;;;;;;8.68;4.20;;;;;;;;;;5041272;28;20029;-56
2022/01/22 04:37:52;;;;;;;9.75;3.85;;;;;;;;;;5025935;28;20109;-56
2022/01/22 04:40:18;;;;;;;7.57;3.80;;;;;;;;;;5026237;28;20460;-56
2022/01/22 04:42:45;;;;;;;7.95;4.03;;;;;;;;;;5026274;28;20112;-56
2022/01/22 04:45:38;;;;;;;8.95;3.50;;;;;;;;;;5027923;28;20029;-56
2022/01/22 04:48:26;;;;;;;8.73;3.63;;;;;;;;;;5025860;28;20040;-56
2022/01/22 04:56:23;;;;;;;6.70;3.38;;;;;;;;;;5026113;28;20534;-57
2022/01/22 04:58:49;;;;;;;5.28;2.85;;;;;;;;;;5030774;28;20036;-57
2022/01/22 05:01:15;;;;;;;8.40;3.28;;;;;;;;;;5045514;28;20035;-56
2022/01/22 05:03:41;;;;;;;6.05;2.85;;;;;;;;;;5045485;28;20175;-57
2022/01/22 05:06:07;;;;;;;8.32;3.03;;;;;;;;;;5025542;28;20022;-57
2022/01/22 05:08:34;;;;;;;5.03;2.58;;;;;;;;;;5036373;28;20048;-57
2022/01/22 05:11:00;;;;;;;7.40;3.38;;;;;;;;;;5045249;28;20036;-56
2022/01/22 05:13:26;;;;;;;6.15;3.20;;;;;;;;;;5044776;28;20052;-56
2022/01/22 05:15:53;;;;;;;5.05;2.75;;;;;;;;;;5044512;28;20056;-57
2022/01/22 05:18:20;;;;;;;6.35;3.22;;;;;;;;;;5044615;28;20035;-56
2022/01/22 05:20:54;;;;;;;6.45;3.53;;;;;;;;;;5025528;28;20026;-56
2022/01/22 05:23:24;;;;;;;5.95;3.17;;;;;;;;;;5025625;28;20049;-57
2022/01/22 05:25:57;;;;;;;5.97;3.22;;;;;;;;;;5025200;28;20328;-56
2022/01/22 05:39:24;;;;;;;6.03;2.70;;;;;;;;;;5036654;28;20584;-56
2022/01/22 05:41:50;;;;;;;4.78;2.60;;;;;;;;;;5025317;28;20037;-57
2022/01/22 05:44:18;;;;;;;7.13;3.17;;;;;;;;;;5039801;28;20417;-56
2022/01/22 05:46:44;;;;;;;4.88;2.97;;;;;;;;;;5025308;28;20040;-55
2022/01/22 05:49:11;;;;;;;4.43;2.63;;;;;;;;;;5026094;28;20071;-56
2022/01/22 05:51:40;;;;;;;8.82;3.17;;;;;;;;;;5036671;28;20032;-57
2022/01/22 05:54:33;;;;;;;7.05;2.80;;;;;;;;;;5044857;28;20024;-56
2022/01/22 05:59:46;;;;;;;5.90;3.10;;;;;;;;;;5044813;28;20562;-55
2022/01/22 06:02:14;;;;;;;5.72;3.08;;;;;;;;;;5038628;28;20404;-57
2022/01/22 06:04:42;;;;;;;6.50;3.58;;;;;;;;;;5027339;28;20043;-56
2022/01/22 06:07:09;;;;;;;8.93;3.45;;;;;;;;;;5044544;28;20094;-57
2022/01/22 06:09:38;;;;;;;6.97;3.65;;;;;;;;;;5044820;28;20025;-57
2022/01/22 06:12:16;;;;;;;7.60;3.80;;;;;;;;;;5042424;28;20025;-56
2022/01/22 06:14:42;;;;;;;7.00;3.58;;;;;;;;;;5024533;28;20047;-56
2022/01/22 06:17:08;;;;;;;7.05;3.90;;;;;;;;;;5024550;28;20548;-56
2022/01/22 06:19:36;;;;;;;9.55;3.83;;;;;;;;;;5024503;28;20034;-56
2022/01/22 06:22:03;;;;;;;6.22;3.53;;;;;;;;;;5024952;28;20025;-56
2022/01/22 06:24:29;;;;;;;5.65;3.35;;;;;;;;;;5043677;28;20504;-57
2022/01/22 06:26:55;;;;;;;8.27;3.78;;;;;;;;;;5046846;28;20029;-56
2022/01/22 06:29:21;;;;;;;8.68;4.35;;;;;;;;;;5048249;28;20033;-55
2022/01/22 06:31:47;;;;;;;7.55;4.13;;;;;;;;;;5048492;28;20511;-56
2022/01/22 06:34:13;;;;;;;7.68;4.32;;;;;;;;;;5048207;28;20029;-56
2022/01/22 06:36:39;;;;;;;9.27;4.55;;;;;;;;;;5035855;28;20088;-57
2022/01/22 06:39:14;;;;;;;9.38;4.70;;;;;;;;;;5027899;28;20068;-57
2022/01/22 06:41:47;;;;;;;7.72;4.28;;;;;;;;;;5028192;28;20508;-57
2022/01/22 06:44:14;;;;;;;10.40;4.40;;;;;;;;;;5028249;28;20053;-55
2022/01/22 06:46:40;;;;;;;7.63;3.60;;;;;;;;;;5037003;28;20067;-58
2022/01/22 06:49:06;;;;;;;6.95;3.97;;;;;;;;;;5048097;28;20407;-56
2022/01/22 06:51:33;;;;;;;7.15;3.60;;;;;;;;;;5048460;28;20098;-56
2022/01/22 06:54:00;;;;;;;5.80;3.88;;;;;;;;;;5045852;28;20064;-57
2022/01/22 06:56:28;;;;;;;7.15;4.00;;;;;;;;;;5037997;28;20499;-57
2022/01/22 06:58:54;;;;;;;6.88;3.83;;;;;;;;;;5048848;28;20112;-57
2022/01/22 07:01:20;;;;;;;7.30;3.80;;;;;;;;;;5049290;28;20506;-57
2022/01/22 07:03:46;;;;;;;6.75;4.05;;;;;;;;;;5048650;28;20039;-57
2022/01/22 07:06:12;;;;;;;5.80;3.35;;;;;;;;;;5048162;28;20025;-56
2022/01/22 07:08:38;;;;;;;5.30;3.58;;;;;;;;;;5048997;28;20415;-57
2022/01/22 07:11:04;;;;;;;7.78;3.50;;;;;;;;;;5047322;28;20667;-57
2022/01/22 07:13:30;;;;;;;7.00;3.42;;;;;;;;;;5049284;28;20029;-57
2022/01/22 07:15:56;;;;;;;6.10;3.95;;;;;;;;;;5035788;28;20527;-56
2022/01/22 07:18:22;;;;;;;7.82;3.80;;;;;;;;;;5044141;28;20438;-57
2022/01/22 07:20:51;;;;;;;7.15;3.88;;;;;;;;;;5028950;28;20389;-56
2022/01/22 07:26:06;;;;;;;5.85;3.58;;;;;;;;;;5029019;28;20029;-58
2022/01/22 07:28:32;;;;;;;7.63;4.10;;;;;;;;;;5029949;28;20037;-56
2022/01/22 07:31:00;;;;;;;9.77;4.28;;;;;;;;;;5048647;28;20017;-57
2022/01/22 07:33:27;;;;;;;4.90;3.78;;;;;;;;;;5043016;28;20029;-57
2022/01/22 07:35:53;;;;;;;8.23;3.70;;;;;;;;;;5028231;28;20068;-56
2022/01/22 07:38:20;;;;;;;5.90;3.40;;;;;;;;;;5043784;28;20029;-57
2022/01/22 07:40:46;;;;;;;7.45;4.13;;;;;;;;;;5048404;28;20047;-57
2022/01/22 07:43:14;;;;;;;5.65;3.47;;;;;;;;;;5047288;28;20032;-57
2022/01/22 07:45:40;;;;;;;6.55;3.58;;;;;;;;;;5037063;28;20041;-57
2022/01/22 07:48:07;;;;;;;7.80;4.03;;;;;;;;;;5032071;28;20029;-56
2022/01/22 07:50:34;;;;;;;7.20;4.00;;;;;;;;;;5047072;28;20029;-57
2022/01/22 07:53:02;;;;;;;6.53;3.80;;;;;;;;;;5047542;28;20120;-56
2022/01/22 07:55:28;;;;;;;8.95;4.07;;;;;;;;;;5046303;28;20037;-56
2022/01/22 07:57:56;;;;;;;6.30;3.85;;;;;;;;;;5045449;28;20079;-55
2022/01/22 08:00:22;;;;;;;7.13;4.22;;;;;;;;;;5046626;28;20024;-55
2022/01/22 08:02:48;;;;;;;8.10;4.18;;;;;;;;;;5038351;28;20049;-56
2022/01/22 08:05:14;;;;;;;11.85;5.45;;;;;;;;;;5042818;28;20072;-56
2022/01/22 08:07:44;;;;;;;10.50;4.95;;;;;;;;;;5042415;28;20037;-55
2022/01/22 08:10:11;;;;;;;8.98;5.30;;;;;;;;;;5054341;28;20089;-55
2022/01/22 08:12:38;;;;;;;12.32;5.32;;;;;;;;;;5049234;28;20037;-56
2022/01/22 08:15:07;;;;;;;14.82;6.85;;;;;;;;;;5042555;28;20037;-57
2022/01/22 08:17:34;;;;;;;12.65;6.28;;;;;;;;;;5045463;28;20028;-57
2022/01/22 08:20:00;;;;;;;14.30;5.63;;;;;;;;;;5049076;28;20040;-56
2022/01/22 08:22:27;;;;;;;13.38;5.55;;;;;;;;;;5048368;28;20542;-57
2022/01/22 08:24:55;;;;;;;9.55;5.03;;;;;;;;;;5047332;28;20095;-57
2022/01/22 08:29:54;;;;;;;6.72;3.80;;;;;;;;;;5046684;28;20104;-56
2022/01/22 08:37:41;;;;;;;6.47;3.60;;;;;;;;;;5059160;28;20062;-55
2022/01/22 08:40:08;;;;;;;6.85;4.18;;;;;;;;;;5046619;28;20032;-55
2022/01/22 08:42:34;;;;;;;7.03;3.70;;;;;;;;;;5046907;28;20048;-56
2022/01/22 08:45:00;;;;;;;8.18;4.13;;;;;;;;;;5047479;28;20589;-56
2022/01/22 08:47:26;;;;;;;9.20;3.78;;;;;;;;;;5043327;28;20037;-55
2022/01/22 08:49:52;;;;;;;5.95;3.70;;;;;;;;;;5044800;28;20033;-56
2022/01/22 08:52:23;;;;;;;7.78;4.18;;;;;;;;;;5047235;28;20053;-58
2022/01/22 08:54:49;;;;;;;6.95;3.72;;;;;;;;;;5036047;28;20519;-56
2022/01/22 08:57:15;;;;;;;6.22;3.95;;;;;;;;;;5046416;28;20396;-55
2022/01/22 08:59:42;;;;;;;7.70;3.80;;;;;;;;;;5045813;28;20055;-56
2022/01/22 09:02:08;;;;;;;6.85;4.13;;;;;;;;;;5032992;28;20028;-57
2022/01/22 09:04:34;;;;;;;6.45;3.85;;;;;;;;;;5028076;28;20076;-55
2022/01/22 09:07:00;;;;;;;7.78;4.10;;;;;;;;;;5037608;28;20073;-56
2022/01/22 09:09:35;;;;;;;6.05;3.55;;;;;;;;;;5063456;28;20436;-56
2022/01/22 09:12:02;;;;;;;5.78;3.50;;;;;;;;;;5063208;28;20025;-54
2022/01/22 09:14:28;;;;;;;6.55;3.50;;;;;;;;;;5057987;28;20114;-55
2022/01/22 09:16:54;;;;;;;6.30;3.40;;;;;;;;;;5062779;28;20455;-54
2022/01/22 09:19:23;;;;;;;6.15;3.92;;;;;;;;;;5063173;28;20095;-52
2022/01/22 09:21:50;;;;;;;4.93;3.45;;;;;;;;;;5064008;28;20447;-55
2022/01/22 09:24:16;;;;;;;5.55;3.55;;;;;;;;;;5064317;28;20033;-54
2022/01/22 09:26:42;;;;;;;6.03;3.80;;;;;;;;;;5064549;28;20039;-55
2022/01/22 09:29:09;;;;;;;5.25;3.60;;;;;;;;;;5063242;28;20256;-54
2022/01/22 09:31:35;;;;;;;6.10;3.50;;;;;;;;;;5044333;28;20392;-54
2022/01/22 09:34:02;;;;;;;7.60;3.90;;;;;;;;;;5043720;28;20049;-54
2022/01/22 09:36:28;;;;;;;5.65;3.65;;;;;;;;;;5046167;28;20799;-55
2022/01/22 09:38:55;;;;;;;5.68;3.45;;;;;;;;;;5063543;28;20021;-54
2022/01/22 09:41:23;;;;;;;6.38;3.97;;;;;;;;;;5062775;28;20576;-55
2022/01/22 09:43:49;;;;;;;8.32;3.97;;;;;;;;;;5063637;28;20033;-55
2022/01/22 09:46:15;;;;;;;5.53;3.50;;;;;;;;;;5063705;28;20044;-56
2022/01/22 09:48:42;;;;;;;5.68;3.10;;;;;;;;;;5061156;28;20054;-55
2022/01/22 09:51:08;;;;;;;8.32;3.55;;;;;;;;;;5060489;28;20515;-55
2022/01/22 09:53:34;;;;;;;5.88;3.78;;;;;;;;;;5062749;28;20029;-55
2022/01/22 09:56:01;;;;;;;6.22;3.65;;;;;;;;;;5063241;28;20043;-54
2022/01/22 09:58:27;;;;;;;5.97;3.70;;;;;;;;;;5063373;28;20094;-55
2022/01/22 10:00:53;;;;;;;5.72;3.53;;;;;;;;;;5061574;28;20035;-56
2022/01/22 10:03:20;;;;;;;5.95;3.80;;;;;;;;;;5062584;28;20056;-55
2022/01/22 10:05:46;;;;;;;4.13;3.08;;;;;;;;;;5054075;28;20128;-55
2022/01/22 10:08:21;;;;;;;5.18;3.50;;;;;;;;;;5063598;28;20041;-54
2022/01/22 10:10:48;;;;;;;7.25;4.07;;;;;;;;;;5060722;28;20492;-55
2022/01/22 10:13:15;;;;;;;6.78;3.80;;;;;;;;;;5061935;28;20052;-56
2022/01/22 10:15:42;;;;;;;7.10;4.03;;;;;;;;;;5055885;28;20441;-55
2022/01/22 10:18:08;;;;;;;10.23;5.28;;;;;;;;;;5061417;28;20090;-55
2022/01/22 10:20:41;;;;;;;10.57;4.70;;;;;;;;;;5050107;28;20052;-55
2022/01/22 10:23:16;;;;;;;10.65;4.53;;;;;;;;;;5047319;28;20021;-55
2022/01/22 10:25:47;;;;;;;8.63;4.68;;;;;;;;;;5070125;28;20070;-55
2022/01/22 10:28:20;;;;;;;8.23;4.25;;;;;;;;;;5052111;28;20060;-55
2022/01/22 10:30:47;;;;;;;5.65;3.75;;;;;;;;;;5042606;28;20021;-55
2022/01/22 10:33:36;;;;;;;5.65;3.45;;;;;;;;;;5043249;28;20032;-55
2022/01/22 10:36:17;;;;;;;6.90;3.25;;;;;;;;;;5048883;28;20028;-55
2022/01/22 10:38:46;;;;;;;5.70;3.20;;;;;;;;;;5037829;28;20095;-55
2022/01/22 10:41:16;;;;;;;4.65;3.45;;;;;;;;;;5035056;28;20052;-54
2022/01/22 10:43:53;;;;;;;6.75;3.83;;;;;;;;;;5049929;28;20107;-55
2022/01/22 10:46:21;;;;;;;5.57;3.25;;;;;;;;;;5048344;28;20112;-54
2022/01/22 10:48:57;;;;;;;4.85;3.45;;;;;;;;;;5047917;28;20518;-55
2022/01/22 10:51:23;;;;;;;5.47;3.13;;;;;;;;;;5046861;28;20112;-54
2022/01/22 10:53:51;;;;;;;4.10;2.95;;;;;;;;;;5049506;28;20396;-55
2022/01/22 10:56:19;;;;;;;4.05;2.75;;;;;;;;;;5044386;28;20455;-56
2022/01/22 10:59:05;;;;;;;3.90;2.60;;;;;;;;;;5047688;28;20025;-54
2022/01/22 11:01:44;;;;;;;5.18;3.03;;;;;;;;;;5047649;28;20037;-55
2022/01/22 11:04:11;;;;;;;5.25;3.33;;;;;;;;;;5048187;28;20029;-55
2022/01/22 11:06:39;;;;;;;6.78;3.42;;;;;;;;;;5029376;28;20034;-55
2022/01/22 11:09:07;;;;;;;4.70;3.00;;;;;;;;;;5028174;28;20053;-55
2022/01/22 11:11:37;;;;;;;5.00;3.10;;;;;;;;;;5040376;28;20025;-55
2022/01/22 11:14:04;;;;;;;7.13;2.83;;;;;;;;;;5046502;28;20392;-55
2022/01/22 11:16:31;;;;;;;5.32;3.30;;;;;;;;;;5046648;28;20447;-55
2022/01/22 11:18:57;;;;;;;4.55;3.03;;;;;;;;;;5048597;28;20516;-56
2022/01/22 11:21:24;;;;;;;5.20;3.08;;;;;;;;;;5049304;28;20468;-58
2022/01/22 11:23:50;;;;;;;5.68;3.80;;;;;;;;;;5046971;28;20028;-56
2022/01/22 11:26:16;;;;;;;7.30;3.45;;;;;;;;;;5047532;28;20183;-56
2022/01/22 11:28:44;;;;;;;6.10;3.63;;;;;;;;;;5047437;28;20029;-55
2022/01/22 11:31:11;;;;;;;6.25;3.45;;;;;;;;;;5043268;28;20020;-54
2022/01/22 11:33:39;;;;;;;5.78;3.38;;;;;;;;;;5048027;28;20021;-56
2022/01/22 11:36:09;;;;;;;6.80;3.58;;;;;;;;;;5041852;28;20127;-55
2022/01/22 11:38:40;;;;;;;4.72;2.97;;;;;;;;;;5035723;28;20040;-55
2022/01/22 11:41:10;;;;;;;5.90;3.10;;;;;;;;;;5042358;28;20123;-55
2022/01/22 11:46:36;;;;;;;5.63;3.60;;;;;;;;;;5048928;28;20041;-55
2022/01/22 11:49:11;;;;;;;6.65;3.47;;;;;;;;;;5049710;28;20036;-56
2022/01/22 11:51:37;;;;;;;5.25;3.45;;;;;;;;;;5048041;28;20086;-55
2022/01/22 11:54:03;;;;;;;5.53;3.17;;;;;;;;;;5047838;28;20142;-55
2022/01/22 11:56:50;;;;;;;5.07;3.05;;;;;;;;;;5047838;28;20082;-56
2022/01/22 11:59:16;;;;;;;4.35;3.00;;;;;;;;;;5046964;28;20128;-55
2022/01/22 12:01:46;;;;;;;5.22;3.00;;;;;;;;;;5047726;28;20055;-56
2022/01/22 12:04:14;;;;;;;6.40;3.38;;;;;;;;;;5047426;28;20464;-56
2022/01/22 12:07:00;;;;;;;7.47;4.63;;;;;;;;;;5046323;28;20388;-57
2022/01/22 12:09:30;;;;;;;10.75;5.97;;;;;;;;;;5046655;28;20056;-57
2022/01/22 12:14:48;;;;;;;7.60;4.97;;;;;;;;;;5050721;28;20040;-56
2022/01/22 12:17:24;;;;;;;9.82;5.80;;;;;;;;;;5039701;28;20033;-56
2022/01/22 12:22:34;;;;;;;7.65;4.60;;;;;;;;;;5047314;28;20671;-56
2022/01/22 12:25:00;;;;;;;;;;;;;;;;;;5052031;28;20507;-55
2022/01/22 12:27:45;;;;;;;6.57;3.88;;;;;;;;;;5058576;28;19916;-55
2022/01/22 12:30:11;;;;;;;7.95;4.45;;;;;;;;;;5047105;28;20029;-55
2022/01/22 12:32:48;;;;;;;5.43;3.47;;;;;;;;;;5044648;28;20029;-55
2022/01/22 12:35:18;;;;;;;5.57;3.40;;;;;;;;;;5046438;28;20048;-56
2022/01/22 12:37:49;;;;;;;5.65;3.90;;;;;;;;;;5046839;28;20047;-55
2022/01/22 12:40:27;;;;;;;15.40;7.40;;;;;;;;;;5045907;28;20256;-56
2022/01/22 12:43:01;;;;;;;14.27;7.28;;;;;;;;;;5038428;28;20032;-56
2022/01/22 12:45:28;;;;;;;12.10;6.50;;;;;;;;;;5033155;28;20033;-56
2022/01/22 12:47:54;;;;;;;10.75;5.90;;;;;;;;;;5032240;28;20032;-56
2022/01/22 12:50:25;;;;;;;10.25;5.47;;;;;;;;;;5043964;28;20108;-55
2022/01/22 12:52:52;;;;;;;7.72;4.47;;;;;;;;;;5035760;28;20060;-56
2022/01/22 12:55:20;;;;;;;6.95;4.45;;;;;;;;;;5053802;28;20027;-57
2022/01/22 12:57:46;;;;;;;8.68;5.15;;;;;;;;;;5031560;28;20022;-55
2022/01/22 13:00:15;;;;;;;8.88;4.85;;;;;;;;;;5045760;28;20037;-56
2022/01/22 13:02:42;;;;;;;10.00;5.07;;;;;;;;;;5051758;28;20378;-56
2022/01/22 13:05:09;;;;;;;6.60;4.22;;;;;;;;;;5035613;28;20041;-56
2022/01/22 13:07:38;;;;;;;7.22;4.20;;;;;;;;;;5027260;28;20033;-57
2022/01/22 13:10:07;;;;;;;7.50;4.63;;;;;;;;;;5046634;28;20029;-57
2022/01/22 13:12:44;;;;;;;8.68;4.82;;;;;;;;;;5044624;28;20044;-56
2022/01/22 13:15:11;;;;;;;5.43;3.65;;;;;;;;;;5039107;28;20025;-56
2022/01/22 13:17:38;;;;;;;6.53;4.00;;;;;;;;;;5045597;28;20599;-57
2022/01/22 13:20:05;;;;;;;7.18;3.97;;;;;;;;;;5044623;28;20029;-56
2022/01/22 13:22:31;;;;;;;6.78;4.40;;;;;;;;;;5035273;28;20091;-56
2022/01/22 13:25:23;;;;;;;5.97;3.85;;;;;;;;;;5026958;28;20033;-57
2022/01/22 13:28:04;;;;;;;5.95;3.53;;;;;;;;;;5028380;28;20033;-56
2022/01/22 13:30:40;;;;;;;4.80;3.67;;;;;;;;;;5051818;28;20027;-55
2022/01/22 13:33:23;;;;;;;6.13;3.80;;;;;;;;;;5062468;28;20052;-56
2022/01/22 13:49:35;;;;;;;4.43;2.95;;;;;;;;;;5046737;28;20043;-56
2022/01/22 13:52:06;;;;;;;4.15;2.88;;;;;;;;;;5046342;28;20074;-57
2022/01/22 13:54:34;;;;;;;4.97;2.88;;;;;;;;;;5046926;28;20036;-57
2022/01/22 13:57:04;;;;;;;4.30;2.72;;;;;;;;;;5039000;28;20017;-58
2022/01/22 13:59:31;;;;;;;3.65;2.30;;;;;;;;;;5029096;28;20038;-58
2022/01/22 14:02:07;;;;;;;4.43;2.83;;;;;;;;;;5030090;28;20034;-57
2022/01/22 14:04:40;;;;;;;4.00;2.65;;;;;;;;;;5035297;28;20116;-57
2022/01/22 14:07:35;;;;;;;4.40;2.78;;;;;;;;;;5049575;28;20036;-58
2022/01/22 14:10:04;;;;;;;3.50;2.40;;;;;;;;;;5047732;28;20040;-58
2022/01/22 14:12:40;;;;;;;4.95;2.72;;;;;;;;;;5046843;28;20529;-58
2022/01/22 14:15:11;;;;;;;3.40;2.17;;;;;;;;;;5033521;28;20032;-59
2022/01/22 14:20:43;;;;;;;4.88;2.92;;;;;;;;;;5043267;28;20040;-59
2022/01/22 14:23:15;;;;;;;3.78;2.50;;;;;;;;;;5047116;28;20033;-58
2022/01/22 14:26:01;;;;;;;4.32;2.95;;;;;;;;;;5035634;28;20022;-58
2022/01/22 14:28:38;;;;;;;4.88;2.40;;;;;;;;;;5028036;28;20029;-59
2022/01/22 14:31:23;;;;;;;4.78;2.80;;;;;;;;;;5046272;28;20407;-59
2022/01/22 14:33:49;;;;;;;3.90;2.53;;;;;;;;;;5047582;28;20455;-58
2022/01/22 14:36:16;;;;;;;2.80;2.22;;;;;;;;;;5046725;28;20248;-59
2022/01/22 14:38:48;;;;;;;5.07;2.80;;;;;;;;;;5042066;28;20029;-59
2022/01/22 14:46:57;;;;;;;5.93;3.10;;;;;;;;;;5027829;28;20138;-59
2022/01/22 14:49:34;;;;;;;4.15;2.95;;;;;;;;;;5032821;28;20040;-58
2022/01/22 14:52:01;;;;;;;4.25;3.10;;;;;;;;;;5047444;28;20029;-59
2022/01/22 14:54:31;;;;;;;4.30;3.00;;;;;;;;;;5039419;28;20036;-60
2022/01/22 14:56:57;;;;;;;2.95;2.47;;;;;;;;;;5047388;28;20049;-59
2022/01/22 14:59:23;;;;;;;4.20;2.80;;;;;;;;;;5026339;28;20071;-59
2022/01/22 15:01:49;;;;;;;3.80;2.55;;;;;;;;;;5043518;28;20091;-59
2022/01/22 15:04:16;;;;;;;4.53;2.55;;;;;;;;;;5045754;28;20079;-59
2022/01/22 15:06:42;;;;;;;3.78;2.67;;;;;;;;;;5048434;28;20029;-59
2022/01/22 15:09:08;;;;;;;3.15;2.50;;;;;;;;;;5046515;28;20033;-59
2022/01/22 15:11:34;;;;;;;5.20;3.50;;;;;;;;;;5045690;28;20508;-59
2022/01/22 15:14:02;;;;;;;4.35;3.00;;;;;;;;;;5046870;28;20024;-59
2022/01/22 15:16:35;;;;;;;4.88;3.20;;;;;;;;;;5044438;28;20090;-59
2022/01/22 15:19:04;;;;;;;4.70;3.17;;;;;;;;;;5045492;28;20567;-59
2022/01/22 15:21:31;;;;;;;5.05;2.85;;;;;;;;;;5046076;28;20047;-59
2022/01/22 15:23:58;;;;;;;4.57;2.65;;;;;;;;;;5046197;28;20028;-59
2022/01/22 15:26:24;;;;;;;3.67;2.92;;;;;;;;;;5046921;28;20179;-59
2022/01/22 15:28:50;;;;;;;4.35;2.85;;;;;;;;;;5030399;28;20041;-59
2022/01/22 15:31:39;;;;;;;4.18;2.97;;;;;;;;;;5042982;28;20024;-59
2022/01/22 15:34:16;;;;;;;4.03;2.50;;;;;;;;;;5045507;28;20021;-59
2022/01/22 15:36:44;;;;;;;4.85;2.92;;;;;;;;;;5045406;28;20507;-59
2022/01/22 15:39:11;;;;;;;3.80;2.50;;;;;;;;;;5034267;28;20544;-59
2022/01/22 15:41:38;;;;;;;4.00;2.70;;;;;;;;;;5046442;28;20025;-60
2022/01/22 15:44:08;;;;;;;3.80;2.55;;;;;;;;;;5031612;28;20025;-59
2022/01/22 15:46:38;;;;;;;6.80;2.90;;;;;;;;;;5026506;28;20030;-59
2022/01/22 15:49:07;;;;;;;4.68;3.15;;;;;;;;;;5046777;28;20036;-59
2022/01/22 15:51:33;;;;;;;5.57;2.90;;;;;;;;;;5038609;28;20618;-59
2022/01/22 15:53:59;;;;;;;6.80;3.90;;;;;;;;;;5026614;28;20026;-59
2022/01/22 15:56:25;;;;;;;6.50;3.88;;;;;;;;;;5046837;28;20029;-59
2022/01/22 15:58:51;;;;;;;6.93;4.20;;;;;;;;;;5046303;28;20029;-59
2022/01/22 16:01:17;;;;;;;6.78;4.40;;;;;;;;;;5046085;28;20407;-60
2022/01/22 16:03:45;;;;;;;7.32;3.92;;;;;;;;;;5032544;28;20103;-59
2022/01/22 16:06:19;;;;;;;10.38;5.78;;;;;;;;;;5026134;28;20086;-60
2022/01/22 16:08:48;;;;;;;7.20;4.80;;;;;;;;;;5032555;28;20028;-59
2022/01/22 16:11:14;;;;;;;7.10;4.85;;;;;;;;;;5046315;28;20516;-59
2022/01/22 16:13:43;;;;;;;6.57;4.03;;;;;;;;;;5047337;28;20017;-59
2022/01/22 16:16:10;;;;;;;7.38;4.93;;;;;;;;;;5047175;28;20036;-60
2022/01/22 16:18:36;;;;;;;7.60;4.50;;;;;;;;;;5047916;28;20043;-59
2022/01/22 16:21:03;;;;;;;7.55;4.40;;;;;;;;;;5043215;28;20037;-59
2022/01/22 16:23:30;;;;;;;6.05;3.65;;;;;;;;;;5045990;28;20090;-58
2022/01/22 16:25:56;;;;;;;7.60;3.72;;;;;;;;;;5046160;28;20029;-59
2022/01/22 16:28:22;;;;;;;6.20;3.50;;;;;;;;;;5044214;28;20369;-59
2022/01/22 16:30:48;;;;;;;6.68;3.70;;;;;;;;;;5045700;28;20973;-59
2022/01/22 16:33:15;;;;;;;4.65;3.25;;;;;;;;;;5041207;28;20029;-59
2022/01/22 16:35:41;;;;;;;6.35;3.50;;;;;;;;;;5045742;28;20049;-58
2022/01/22 16:38:07;;;;;;;4.22;3.20;;;;;;;;;;5045217;28;20053;-59
2022/01/22 16:40:33;;;;;;;6.93;3.70;;;;;;;;;;5045945;28;20024;-59
2022/01/22 16:43:03;;;;;;;6.60;3.90;;;;;;;;;;5045533;28;20032;-59
2022/01/22 16:56:37;;;;;;;6.82;3.92;;;;;;;;;;5045531;28;20504;-59
2022/01/22 16:58:58;;;;;;;7.72;4.80;;;;;;;;;;5045480;28;20029;-59